Airfield :
LOGIN :

Register | Disclaimer

   EN    FR    IT 

 










Legend :    VFR   Marginal VFR   IFR   Intensive IFR   Very Intensive IFR
Visi :
Ceiling :
>= 8 km
>= 3000ft
5 to 8 km
1000 to 3000 ft
1500m to 5 km
500 to 1000 ft
800 to 1500m
200 to 500 ft
< 800m
< 200 ft
Symbols :   Thunderstorms  Fog  Heavy snow  Heavy precipitations  Wind > 20 kt
SIGMETs :     Misc.  Thunderstorms  Icing  Turbulence  Mountain Waves  Volcanic Ashes






- Airport Elevation : 1260 ft
- IATA code : LDE


LFBT - Tarbes / Ossun

CURRENT METAR :
  • 230130Z AUTO 17003KT CAVOK 14/13 Q1024 NOSIG

EXPIRED METARs :
  • 230100Z AUTO 18004KT CAVOK 15/13 Q1024 NOSIG
  • 230030Z AUTO 19003KT CAVOK 14/13 Q1024 NOSIG
  • 230000Z AUTO 22004KT CAVOK 14/13 Q1024 NOSIG
  • 222330Z AUTO 19003KT CAVOK 15/14 Q1024 NOSIG
  • 222300Z AUTO 18003KT CAVOK 15/13 Q1024 NOSIG
  • 222230Z AUTO 21004KT CAVOK 15/14 Q1024 NOSIG
  • 222200Z AUTO 21004KT CAVOK 16/14 Q1024 NOSIG
  • 222130Z AUTO 23003KT CAVOK 17/14 Q1025 NOSIG
  • 222100Z AUTO 23004KT 9999 FEW033 17/15 Q1024 NOSIG

TAF TAF LFBT
Valid from the 23 at 00:00 until the 24 at 00:00 UTC


222300Z 2300/2324 VRB03KT CAVOK
BECMG 2307/2309 07004KT
BECMG 2316/2318 24004KT



MET'MAP, your aeronautical weather chart ! - Copyright ORBIFLY December 2007 - Disclaimer

ORBIFLY MET'MAP TEAM :

Programming & Development : Alexandra Zaïnal
Original concept : Baudouin d'Aumeries
Technical & hardware support : Manuel Goepfert
Assistance : Marc-Olivier Méhu




SOURCES & CREDITS :

   NOAA